sensor_id;sensor_type;location;lat;lon;timestamp;temperature;humidity
19868;DHT22;10096;51.112;6.776;2022-12-18T00:02:25;-2.50;1.00
19868;DHT22;10096;51.112;6.776;2022-12-18T00:04:53;-2.70;1.00
19868;DHT22;10096;51.112;6.776;2022-12-18T00:07:20;-2.70;1.00
19868;DHT22;10096;51.112;6.776;2022-12-18T00:09:47;-2.70;1.00
19868;DHT22;10096;51.112;6.776;2022-12-18T00:12:15;-2.50;1.00
19868;DHT22;10096;51.112;6.776;2022-12-18T00:14:42;-2.70;1.00
19868;DHT22;10096;51.112;6.776;2022-12-18T00:17:11;-2.70;1.00
19868;DHT22;10096;51.112;6.776;2022-12-18T00:19:40;-3.00;1.00
19868;DHT22;10096;51.112;6.776;2022-12-18T00:22:07;-3.00;1.00
19868;DHT22;10096;51.112;6.776;2022-12-18T00:24:34;-2.70;1.00
19868;DHT22;10096;51.112;6.776;2022-12-18T00:27:02;-2.80;1.00
19868;DHT22;10096;51.112;6.776;2022-12-18T00:29:30;-2.90;1.00
19868;DHT22;10096;51.112;6.776;2022-12-18T00:31:57;-2.80;1.00
19868;DHT22;10096;51.112;6.776;2022-12-18T00:34:26;-3.10;1.00
19868;DHT22;10096;51.112;6.776;2022-12-18T00:36:53;-3.00;1.00
19868;DHT22;10096;51.112;6.776;2022-12-18T00:39:20;-2.90;1.00
19868;DHT22;10096;51.112;6.776;2022-12-18T00:41:47;-3.10;1.00
19868;DHT22;10096;51.112;6.776;2022-12-18T00:44:32;-3.10;1.00
19868;DHT22;10096;51.112;6.776;2022-12-18T00:46:59;-3.00;1.00
19868;DHT22;10096;51.112;6.776;2022-12-18T00:49:27;-2.90;1.00
19868;DHT22;10096;51.112;6.776;2022-12-18T00:51:55;-3.10;1.00
19868;DHT22;10096;51.112;6.776;2022-12-18T00:54:22;-3.00;1.00
19868;DHT22;10096;51.112;6.776;2022-12-18T00:56:49;-3.10;1.00
19868;DHT22;10096;51.112;6.776;2022-12-18T00:59:17;-3.20;1.00
19868;DHT22;10096;51.112;6.776;2022-12-18T01:01:45;-2.90;1.00
19868;DHT22;10096;51.112;6.776;2022-12-18T01:04:12;-3.30;1.00
19868;DHT22;10096;51.112;6.776;2022-12-18T01:06:40;-3.30;1.00
19868;DHT22;10096;51.112;6.776;2022-12-18T01:09:08;-3.00;1.00
19868;DHT22;10096;51.112;6.776;2022-12-18T01:11:34;-3.30;1.00
19868;DHT22;10096;51.112;6.776;2022-12-18T01:14:01;-3.30;1.00
19868;DHT22;10096;51.112;6.776;2022-12-18T01:16:28;-3.30;1.00
19868;DHT22;10096;51.112;6.776;2022-12-18T01:18:55;-3.30;1.00
19868;DHT22;10096;51.112;6.776;2022-12-18T01:21:23;-3.00;1.00
19868;DHT22;10096;51.112;6.776;2022-12-18T01:23:53;-3.20;1.00
19868;DHT22;10096;51.112;6.776;2022-12-18T01:26:21;-3.30;1.00
19868;DHT22;10096;51.112;6.776;2022-12-18T01:28:50;-3.20;1.00
19868;DHT22;10096;51.112;6.776;2022-12-18T01:31:20;-3.10;1.00
19868;DHT22;10096;51.112;6.776;2022-12-18T01:33:49;-3.00;1.00
19868;DHT22;10096;51.112;6.776;2022-12-18T01:36:18;-3.10;1.00
19868;DHT22;10096;51.112;6.776;2022-12-18T01:38:46;-3.10;1.00
19868;DHT22;10096;51.112;6.776;2022-12-18T01:41:17;-3.10;1.00
19868;DHT22;10096;51.112;6.776;2022-12-18T01:43:47;-3.20;1.00
19868;DHT22;10096;51.112;6.776;2022-12-18T01:46:15;-3.30;1.00
19868;DHT22;10096;51.112;6.776;2022-12-18T01:48:42;-3.40;1.00
19868;DHT22;10096;51.112;6.776;2022-12-18T01:51:15;-3.30;1.00
19868;DHT22;10096;51.112;6.776;2022-12-18T01:53:49;-3.30;1.00
19868;DHT22;10096;51.112;6.776;2022-12-18T01:56:19;-3.20;1.00
19868;DHT22;10096;51.112;6.776;2022-12-18T01:58:54;-3.10;1.00
19868;DHT22;10096;51.112;6.776;2022-12-18T02:01:23;-3.10;1.00
19868;DHT22;10096;51.112;6.776;2022-12-18T02:03:50;-3.20;1.00
19868;DHT22;10096;51.112;6.776;2022-12-18T02:06:21;-3.20;1.00
19868;DHT22;10096;51.112;6.776;2022-12-18T02:09:00;-3.20;1.00
19868;DHT22;10096;51.112;6.776;2022-12-18T02:11:38;-3.10;1.00
19868;DHT22;10096;51.112;6.776;2022-12-18T02:14:14;-3.10;1.00
19868;DHT22;10096;51.112;6.776;2022-12-18T02:16:49;-3.10;1.00
19868;DHT22;10096;51.112;6.776;2022-12-18T02:19:34;-3.00;1.00
19868;DHT22;10096;51.112;6.776;2022-12-18T02:22:20;-3.00;1.00
19868;DHT22;10096;51.112;6.776;2022-12-18T02:24:58;-2.90;1.00
19868;DHT22;10096;51.112;6.776;2022-12-18T02:27:29;-2.80;1.00
19868;DHT22;10096;51.112;6.776;2022-12-18T02:30:00;-2.90;1.00
19868;DHT22;10096;51.112;6.776;2022-12-18T02:32:31;-2.70;1.00
19868;DHT22;10096;51.112;6.776;2022-12-18T02:35:02;-2.80;1.00
19868;DHT22;10096;51.112;6.776;2022-12-18T02:37:32;-2.80;1.00
19868;DHT22;10096;51.112;6.776;2022-12-18T02:40:01;-2.60;1.00
19868;DHT22;10096;51.112;6.776;2022-12-18T02:42:31;-2.80;1.00
19868;DHT22;10096;51.112;6.776;2022-12-18T02:44:59;-2.60;1.00
19868;DHT22;10096;51.112;6.776;2022-12-18T02:47:29;-2.80;1.00
19868;DHT22;10096;51.112;6.776;2022-12-18T02:50:02;-2.50;1.00
19868;DHT22;10096;51.112;6.776;2022-12-18T02:52:35;-2.70;1.00
19868;DHT22;10096;51.112;6.776;2022-12-18T02:55:16;-2.60;1.00
19868;DHT22;10096;51.112;6.776;2022-12-18T02:57:50;-2.40;1.00
19868;DHT22;10096;51.112;6.776;2022-12-18T03:00:22;-2.90;1.00
19868;DHT22;10096;51.112;6.776;2022-12-18T03:02:55;-2.70;1.00
19868;DHT22;10096;51.112;6.776;2022-12-18T03:05:29;-2.60;1.00
19868;DHT22;10096;51.112;6.776;2022-12-18T03:08:00;-2.50;1.00
19868;DHT22;10096;51.112;6.776;2022-12-18T03:10:32;-2.70;1.00
19868;DHT22;10096;51.112;6.776;2022-12-18T03:13:05;-2.70;1.00
19868;DHT22;10096;51.112;6.776;2022-12-18T03:15:35;-2.70;1.00
19868;DHT22;10096;51.112;6.776;2022-12-18T03:18:06;-2.60;1.00
19868;DHT22;10096;51.112;6.776;2022-12-18T03:20:36;-2.60;1.00
19868;DHT22;10096;51.112;6.776;2022-12-18T03:23:09;-2.60;1.00
19868;DHT22;10096;51.112;6.776;2022-12-18T03:25:43;-2.40;1.00
19868;DHT22;10096;51.112;6.776;2022-12-18T03:28:14;-2.60;1.00
19868;DHT22;10096;51.112;6.776;2022-12-18T03:30:44;-2.30;1.00
19868;DHT22;10096;51.112;6.776;2022-12-18T03:33:15;-2.50;1.00
19868;DHT22;10096;51.112;6.776;2022-12-18T03:35:45;-2.40;1.00
19868;DHT22;10096;51.112;6.776;2022-12-18T03:38:13;-2.30;1.00
19868;DHT22;10096;51.112;6.776;2022-12-18T03:40:49;-2.50;1.00
19868;DHT22;10096;51.112;6.776;2022-12-18T03:43:29;-2.50;1.00
19868;DHT22;10096;51.112;6.776;2022-12-18T03:46:02;-2.30;1.00
19868;DHT22;10096;51.112;6.776;2022-12-18T03:48:33;-2.40;1.00
19868;DHT22;10096;51.112;6.776;2022-12-18T03:51:07;-2.50;1.00
19868;DHT22;10096;51.112;6.776;2022-12-18T03:53:39;-2.80;1.00
19868;DHT22;10096;51.112;6.776;2022-12-18T03:56:09;-2.60;1.00
19868;DHT22;10096;51.112;6.776;2022-12-18T03:58:38;-2.80;1.00
19868;DHT22;10096;51.112;6.776;2022-12-18T04:01:07;-2.80;1.00
19868;DHT22;10096;51.112;6.776;2022-12-18T04:03:36;-2.70;1.00
19868;DHT22;10096;51.112;6.776;2022-12-18T04:06:05;-2.60;1.00
19868;DHT22;10096;51.112;6.776;2022-12-18T04:08:33;-2.80;1.00
19868;DHT22;10096;51.112;6.776;2022-12-18T04:11:02;-2.80;1.00
19868;DHT22;10096;51.112;6.776;2022-12-18T04:13:33;-2.70;1.00
19868;DHT22;10096;51.112;6.776;2022-12-18T04:16:02;-2.80;1.00
19868;DHT22;10096;51.112;6.776;2022-12-18T04:18:30;-2.80;1.00
19868;DHT22;10096;51.112;6.776;2022-12-18T04:20:57;-2.90;1.00
19868;DHT22;10096;51.112;6.776;2022-12-18T04:23:24;-2.70;1.00
19868;DHT22;10096;51.112;6.776;2022-12-18T04:25:51;-2.70;1.00
19868;DHT22;10096;51.112;6.776;2022-12-18T04:28:18;-3.00;1.00
19868;DHT22;10096;51.112;6.776;2022-12-18T04:30:45;-3.00;1.00
19868;DHT22;10096;51.112;6.776;2022-12-18T04:33:21;-3.10;1.00
19868;DHT22;10096;51.112;6.776;2022-12-18T04:35:48;-2.80;1.00
19868;DHT22;10096;51.112;6.776;2022-12-18T04:38:15;-3.00;1.00
19868;DHT22;10096;51.112;6.776;2022-12-18T04:40:43;-3.10;1.00
19868;DHT22;10096;51.112;6.776;2022-12-18T04:43:10;-3.10;1.00
19868;DHT22;10096;51.112;6.776;2022-12-18T04:45:37;-2.80;1.00
19868;DHT22;10096;51.112;6.776;2022-12-18T04:48:04;-2.90;1.00
19868;DHT22;10096;51.112;6.776;2022-12-18T04:50:33;-3.00;1.00
19868;DHT22;10096;51.112;6.776;2022-12-18T04:53:00;-3.00;1.00
19868;DHT22;10096;51.112;6.776;2022-12-18T04:55:28;-2.90;1.00
19868;DHT22;10096;51.112;6.776;2022-12-18T04:57:55;-3.00;1.00
19868;DHT22;10096;51.112;6.776;2022-12-18T05:00:22;-2.90;1.00
19868;DHT22;10096;51.112;6.776;2022-12-18T05:02:54;-2.70;1.00
19868;DHT22;10096;51.112;6.776;2022-12-18T05:05:24;-2.80;1.00
19868;DHT22;10096;51.112;6.776;2022-12-18T05:07:55;-2.60;1.00
19868;DHT22;10096;51.112;6.776;2022-12-18T05:10:23;-3.10;1.00
19868;DHT22;10096;51.112;6.776;2022-12-18T05:12:50;-2.80;1.00
19868;DHT22;10096;51.112;6.776;2022-12-18T05:15:27;-2.70;1.00
19868;DHT22;10096;51.112;6.776;2022-12-18T05:17:55;-2.70;1.00
19868;DHT22;10096;51.112;6.776;2022-12-18T05:20:22;-2.50;1.00
19868;DHT22;10096;51.112;6.776;2022-12-18T05:22:50;-2.70;1.00
19868;DHT22;10096;51.112;6.776;2022-12-18T05:25:19;-2.60;1.00
19868;DHT22;10096;51.112;6.776;2022-12-18T05:27:46;-2.50;1.00
19868;DHT22;10096;51.112;6.776;2022-12-18T05:30:15;-2.30;1.00
19868;DHT22;10096;51.112;6.776;2022-12-18T05:32:43;-2.40;1.00
19868;DHT22;10096;51.112;6.776;2022-12-18T05:35:11;-2.20;1.00
19868;DHT22;10096;51.112;6.776;2022-12-18T05:37:38;-2.20;1.00
19868;DHT22;10096;51.112;6.776;2022-12-18T05:40:06;-2.40;1.00
19868;DHT22;10096;51.112;6.776;2022-12-18T05:42:38;-2.40;1.00
19868;DHT22;10096;51.112;6.776;2022-12-18T05:45:06;-2.40;1.00
19868;DHT22;10096;51.112;6.776;2022-12-18T05:47:35;-2.50;1.00
19868;DHT22;10096;51.112;6.776;2022-12-18T05:50:02;-2.30;1.00
19868;DHT22;10096;51.112;6.776;2022-12-18T05:52:31;-2.30;1.00
19868;DHT22;10096;51.112;6.776;2022-12-18T05:54:58;-2.30;1.00
19868;DHT22;10096;51.112;6.776;2022-12-18T05:57:26;-2.40;1.00
19868;DHT22;10096;51.112;6.776;2022-12-18T05:59:55;-2.50;1.00
19868;DHT22;10096;51.112;6.776;2022-12-18T06:02:22;-2.40;1.00
19868;DHT22;10096;51.112;6.776;2022-12-18T06:04:49;-2.60;1.00
19868;DHT22;10096;51.112;6.776;2022-12-18T06:07:16;-2.50;1.00
19868;DHT22;10096;51.112;6.776;2022-12-18T06:09:43;-2.70;1.00
19868;DHT22;10096;51.112;6.776;2022-12-18T06:12:10;-2.60;1.00
19868;DHT22;10096;51.112;6.776;2022-12-18T06:14:37;-2.80;1.00
19868;DHT22;10096;51.112;6.776;2022-12-18T06:17:05;-2.80;1.00
19868;DHT22;10096;51.112;6.776;2022-12-18T06:19:35;-2.80;1.00
19868;DHT22;10096;51.112;6.776;2022-12-18T06:22:02;-2.80;1.00
19868;DHT22;10096;51.112;6.776;2022-12-18T06:24:29;-2.60;1.00
19868;DHT22;10096;51.112;6.776;2022-12-18T06:26:56;-2.90;1.00
19868;DHT22;10096;51.112;6.776;2022-12-18T06:29:23;-2.90;1.00
19868;DHT22;10096;51.112;6.776;2022-12-18T06:31:50;-2.90;1.00
19868;DHT22;10096;51.112;6.776;2022-12-18T06:34:19;-2.70;1.00
19868;DHT22;10096;51.112;6.776;2022-12-18T06:36:46;-2.90;1.00
19868;DHT22;10096;51.112;6.776;2022-12-18T06:39:13;-3.00;1.00
19868;DHT22;10096;51.112;6.776;2022-12-18T06:41:41;-3.00;1.00
19868;DHT22;10096;51.112;6.776;2022-12-18T06:44:08;-3.10;1.00
19868;DHT22;10096;51.112;6.776;2022-12-18T06:46:35;-3.00;1.00
19868;DHT22;10096;51.112;6.776;2022-12-18T06:49:03;-3.30;1.00
19868;DHT22;10096;51.112;6.776;2022-12-18T06:51:32;-2.90;1.00
19868;DHT22;10096;51.112;6.776;2022-12-18T06:53:59;-3.10;1.00
19868;DHT22;10096;51.112;6.776;2022-12-18T06:56:28;-3.00;1.00
19868;DHT22;10096;51.112;6.776;2022-12-18T06:58:55;-2.90;1.00
19868;DHT22;10096;51.112;6.776;2022-12-18T07:01:22;-2.60;1.00
19868;DHT22;10096;51.112;6.776;2022-12-18T07:03:52;-2.60;1.00
19868;DHT22;10096;51.112;6.776;2022-12-18T07:06:22;-2.70;1.00
19868;DHT22;10096;51.112;6.776;2022-12-18T07:08:52;-2.40;1.00
19868;DHT22;10096;51.112;6.776;2022-12-18T07:11:20;-2.60;1.00
19868;DHT22;10096;51.112;6.776;2022-12-18T07:13:47;-2.60;1.00
19868;DHT22;10096;51.112;6.776;2022-12-18T07:16:16;-2.50;1.00
19868;DHT22;10096;51.112;6.776;2022-12-18T07:18:45;-2.50;1.00
19868;DHT22;10096;51.112;6.776;2022-12-18T07:21:14;-2.20;1.00
19868;DHT22;10096;51.112;6.776;2022-12-18T07:23:41;-2.50;1.00
19868;DHT22;10096;51.112;6.776;2022-12-18T07:26:11;-2.50;1.00
19868;DHT22;10096;51.112;6.776;2022-12-18T07:28:40;-2.50;1.00
19868;DHT22;10096;51.112;6.776;2022-12-18T07:31:09;-2.50;1.00
19868;DHT22;10096;51.112;6.776;2022-12-18T07:33:37;-2.50;1.00
19868;DHT22;10096;51.112;6.776;2022-12-18T07:36:06;-2.40;1.00
19868;DHT22;10096;51.112;6.776;2022-12-18T07:38:34;-2.40;1.00
19868;DHT22;10096;51.112;6.776;2022-12-18T07:41:02;-2.50;1.00
19868;DHT22;10096;51.112;6.776;2022-12-18T07:43:31;-2.30;1.00
19868;DHT22;10096;51.112;6.776;2022-12-18T07:45:59;-2.50;1.00
19868;DHT22;10096;51.112;6.776;2022-12-18T07:48:26;-2.30;1.00
19868;DHT22;10096;51.112;6.776;2022-12-18T07:50:57;-2.10;1.00
19868;DHT22;10096;51.112;6.776;2022-12-18T07:53:24;-2.30;1.00
19868;DHT22;10096;51.112;6.776;2022-12-18T07:55:55;-2.30;1.00
19868;DHT22;10096;51.112;6.776;2022-12-18T07:58:22;-2.20;1.00
19868;DHT22;10096;51.112;6.776;2022-12-18T08:00:51;-2.00;1.00
19868;DHT22;10096;51.112;6.776;2022-12-18T08:03:19;-2.20;1.00
19868;DHT22;10096;51.112;6.776;2022-12-18T08:05:46;-1.90;1.00
19868;DHT22;10096;51.112;6.776;2022-12-18T08:08:13;-2.10;1.00
19868;DHT22;10096;51.112;6.776;2022-12-18T08:10:40;-1.80;1.00
19868;DHT22;10096;51.112;6.776;2022-12-18T08:13:07;-1.80;1.00
19868;DHT22;10096;51.112;6.776;2022-12-18T08:15:36;-2.00;1.00
19868;DHT22;10096;51.112;6.776;2022-12-18T08:18:04;-1.80;1.00
19868;DHT22;10096;51.112;6.776;2022-12-18T08:20:31;-2.20;1.00
19868;DHT22;10096;51.112;6.776;2022-12-18T08:22:58;-1.90;1.00
19868;DHT22;10096;51.112;6.776;2022-12-18T08:25:25;-1.80;1.00
19868;DHT22;10096;51.112;6.776;2022-12-18T08:27:52;-1.70;1.00
19868;DHT22;10096;51.112;6.776;2022-12-18T08:30:22;-1.80;1.00
19868;DHT22;10096;51.112;6.776;2022-12-18T08:32:51;-1.80;1.00
19868;DHT22;10096;51.112;6.776;2022-12-18T08:35:19;-1.50;1.00
19868;DHT22;10096;51.112;6.776;2022-12-18T08:37:47;-1.50;1.00
19868;DHT22;10096;51.112;6.776;2022-12-18T08:40:14;-1.60;1.00
19868;DHT22;10096;51.112;6.776;2022-12-18T08:42:41;-1.60;1.00
19868;DHT22;10096;51.112;6.776;2022-12-18T08:45:25;-1.30;1.00
19868;DHT22;10096;51.112;6.776;2022-12-18T08:47:52;-1.40;1.00
19868;DHT22;10096;51.112;6.776;2022-12-18T08:50:21;-1.30;1.00
19868;DHT22;10096;51.112;6.776;2022-12-18T08:52:48;-1.20;1.00
19868;DHT22;10096;51.112;6.776;2022-12-18T08:55:15;-1.30;1.00
19868;DHT22;10096;51.112;6.776;2022-12-18T08:57:42;-1.00;1.00
19868;DHT22;10096;51.112;6.776;2022-12-18T09:00:11;-1.10;1.00
19868;DHT22;10096;51.112;6.776;2022-12-18T09:02:38;-1.10;1.00
19868;DHT22;10096;51.112;6.776;2022-12-18T09:05:06;-1.10;1.00
19868;DHT22;10096;51.112;6.776;2022-12-18T09:07:34;-0.90;1.00
19868;DHT22;10096;51.112;6.776;2022-12-18T09:10:02;-0.70;1.00
19868;DHT22;10096;51.112;6.776;2022-12-18T09:12:31;-0.80;1.00
19868;DHT22;10096;51.112;6.776;2022-12-18T09:14:58;-0.90;1.00
19868;DHT22;10096;51.112;6.776;2022-12-18T09:17:25;-0.90;1.00
19868;DHT22;10096;51.112;6.776;2022-12-18T09:19:52;-0.80;1.00
19868;DHT22;10096;51.112;6.776;2022-12-18T09:22:20;-0.70;1.00
19868;DHT22;10096;51.112;6.776;2022-12-18T09:24:48;-0.90;1.00
19868;DHT22;10096;51.112;6.776;2022-12-18T09:27:15;-0.80;1.00
19868;DHT22;10096;51.112;6.776;2022-12-18T09:29:43;-0.90;1.00
19868;DHT22;10096;51.112;6.776;2022-12-18T09:32:10;-0.60;1.00
19868;DHT22;10096;51.112;6.776;2022-12-18T09:34:36;-0.70;1.00
19868;DHT22;10096;51.112;6.776;2022-12-18T09:37:03;-0.60;1.00
19868;DHT22;10096;51.112;6.776;2022-12-18T09:39:30;-0.40;1.00
19868;DHT22;10096;51.112;6.776;2022-12-18T09:41:59;-0.60;1.00
19868;DHT22;10096;51.112;6.776;2022-12-18T09:44:29;-0.40;1.00
19868;DHT22;10096;51.112;6.776;2022-12-18T09:47:04;-0.60;1.00
19868;DHT22;10096;51.112;6.776;2022-12-18T09:49:39;-0.60;1.00
19868;DHT22;10096;51.112;6.776;2022-12-18T09:52:12;-0.80;1.00
19868;DHT22;10096;51.112;6.776;2022-12-18T09:54:45;-0.50;1.00
19868;DHT22;10096;51.112;6.776;2022-12-18T09:57:17;-0.30;1.00
19868;DHT22;10096;51.112;6.776;2022-12-18T09:59:49;-0.40;1.00
19868;DHT22;10096;51.112;6.776;2022-12-18T10:02:19;-0.40;1.00
19868;DHT22;10096;51.112;6.776;2022-12-18T10:04:53;-0.30;1.00
19868;DHT22;10096;51.112;6.776;2022-12-18T10:07:27;-0.20;1.00
19868;DHT22;10096;51.112;6.776;2022-12-18T10:10:02;-0.20;1.00
19868;DHT22;10096;51.112;6.776;2022-12-18T10:12:38;-0.20;1.00
19868;DHT22;10096;51.112;6.776;2022-12-18T10:15:14;-0.20;1.00
19868;DHT22;10096;51.112;6.776;2022-12-18T10:17:53;-0.40;1.00
19868;DHT22;10096;51.112;6.776;2022-12-18T10:20:27;-0.30;1.00
19868;DHT22;10096;51.112;6.776;2022-12-18T10:23:01;0.10;1.00
19868;DHT22;10096;51.112;6.776;2022-12-18T10:25:37;-0.20;1.00
19868;DHT22;10096;51.112;6.776;2022-12-18T10:28:11;-0.10;1.00
19868;DHT22;10096;51.112;6.776;2022-12-18T10:30:39;0.10;1.00
19868;DHT22;10096;51.112;6.776;2022-12-18T10:33:10;0.30;1.00
19868;DHT22;10096;51.112;6.776;2022-12-18T10:35:40;0.10;1.00
19868;DHT22;10096;51.112;6.776;2022-12-18T10:38:24;0.10;1.00
19868;DHT22;10096;51.112;6.776;2022-12-18T10:40:54;0.30;1.00
19868;DHT22;10096;51.112;6.776;2022-12-18T10:43:25;0.40;1.00
19868;DHT22;10096;51.112;6.776;2022-12-18T10:46:14;0.40;1.00
19868;DHT22;10096;51.112;6.776;2022-12-18T10:48:50;0.20;1.00
19868;DHT22;10096;51.112;6.776;2022-12-18T10:51:24;0.30;1.00
19868;DHT22;10096;51.112;6.776;2022-12-18T10:53:54;0.50;1.00
19868;DHT22;10096;51.112;6.776;2022-12-18T10:56:24;0.50;1.00
19868;DHT22;10096;51.112;6.776;2022-12-18T10:58:59;0.50;1.00
19868;DHT22;10096;51.112;6.776;2022-12-18T11:01:28;0.50;1.00
19868;DHT22;10096;51.112;6.776;2022-12-18T11:04:01;0.50;1.00
19868;DHT22;10096;51.112;6.776;2022-12-18T11:06:31;0.60;1.00
19868;DHT22;10096;51.112;6.776;2022-12-18T11:09:00;0.60;1.00
19868;DHT22;10096;51.112;6.776;2022-12-18T11:11:28;0.70;1.00
19868;DHT22;10096;51.112;6.776;2022-12-18T11:14:01;0.50;1.00
19868;DHT22;10096;51.112;6.776;2022-12-18T11:16:31;0.70;1.00
19868;DHT22;10096;51.112;6.776;2022-12-18T11:19:21;0.80;1.00
19868;DHT22;10096;51.112;6.776;2022-12-18T11:21:51;0.70;1.00
19868;DHT22;10096;51.112;6.776;2022-12-18T11:24:23;0.80;1.00
19868;DHT22;10096;51.112;6.776;2022-12-18T11:26:52;0.70;1.00
19868;DHT22;10096;51.112;6.776;2022-12-18T11:29:27;0.80;1.00
19868;DHT22;10096;51.112;6.776;2022-12-18T11:32:30;0.80;1.00
19868;DHT22;10096;51.112;6.776;2022-12-18T11:35:07;0.90;1.00
19868;DHT22;10096;51.112;6.776;2022-12-18T11:37:36;1.00;1.00
19868;DHT22;10096;51.112;6.776;2022-12-18T11:40:12;1.00;1.00
19868;DHT22;10096;51.112;6.776;2022-12-18T11:42:46;1.00;1.00
19868;DHT22;10096;51.112;6.776;2022-12-18T11:45:37;1.00;1.00
19868;DHT22;10096;51.112;6.776;2022-12-18T11:48:13;0.70;1.00
19868;DHT22;10096;51.112;6.776;2022-12-18T11:50:46;0.90;1.00
19868;DHT22;10096;51.112;6.776;2022-12-18T11:53:14;0.70;1.00
19868;DHT22;10096;51.112;6.776;2022-12-18T11:55:48;0.80;1.00
19868;DHT22;10096;51.112;6.776;2022-12-18T11:58:29;0.90;1.00
19868;DHT22;10096;51.112;6.776;2022-12-18T12:01:07;0.80;1.00
19868;DHT22;10096;51.112;6.776;2022-12-18T12:03:54;0.90;1.00
19868;DHT22;10096;51.112;6.776;2022-12-18T12:06:27;0.90;1.00
19868;DHT22;10096;51.112;6.776;2022-12-18T12:09:04;0.90;1.00
19868;DHT22;10096;51.112;6.776;2022-12-18T12:11:44;0.80;1.00
19868;DHT22;10096;51.112;6.776;2022-12-18T12:14:25;0.80;1.00
19868;DHT22;10096;51.112;6.776;2022-12-18T12:16:59;1.10;1.00
19868;DHT22;10096;51.112;6.776;2022-12-18T12:19:38;1.00;1.00
19868;DHT22;10096;51.112;6.776;2022-12-18T12:22:18;0.90;1.00
19868;DHT22;10096;51.112;6.776;2022-12-18T12:25:09;0.80;1.00
19868;DHT22;10096;51.112;6.776;2022-12-18T12:27:43;0.90;1.00
19868;DHT22;10096;51.112;6.776;2022-12-18T12:30:19;0.80;1.00
19868;DHT22;10096;51.112;6.776;2022-12-18T12:33:12;0.80;1.00
19868;DHT22;10096;51.112;6.776;2022-12-18T12:35:47;0.70;1.00
19868;DHT22;10096;51.112;6.776;2022-12-18T12:38:22;0.80;1.00
19868;DHT22;10096;51.112;6.776;2022-12-18T12:41:09;0.60;1.00
19868;DHT22;10096;51.112;6.776;2022-12-18T12:44:00;0.70;1.00
19868;DHT22;10096;51.112;6.776;2022-12-18T12:46:27;0.70;1.00
19868;DHT22;10096;51.112;6.776;2022-12-18T12:49:00;0.60;1.00
19868;DHT22;10096;51.112;6.776;2022-12-18T12:51:33;0.60;1.00
19868;DHT22;10096;51.112;6.776;2022-12-18T12:54:03;0.80;1.00
19868;DHT22;10096;51.112;6.776;2022-12-18T12:56:37;0.70;1.00
19868;DHT22;10096;51.112;6.776;2022-12-18T12:59:12;0.80;1.00
19868;DHT22;10096;51.112;6.776;2022-12-18T13:01:49;0.80;1.00
19868;DHT22;10096;51.112;6.776;2022-12-18T13:04:28;0.90;1.00
19868;DHT22;10096;51.112;6.776;2022-12-18T13:07:01;0.80;1.00
19868;DHT22;10096;51.112;6.776;2022-12-18T13:09:31;0.90;1.00
19868;DHT22;10096;51.112;6.776;2022-12-18T13:12:03;0.90;1.00
19868;DHT22;10096;51.112;6.776;2022-12-18T13:14:48;0.90;1.00
19868;DHT22;10096;51.112;6.776;2022-12-18T13:17:23;0.80;1.00
19868;DHT22;10096;51.112;6.776;2022-12-18T13:20:09;0.70;1.00
19868;DHT22;10096;51.112;6.776;2022-12-18T13:22:38;0.80;1.00
19868;DHT22;10096;51.112;6.776;2022-12-18T13:25:28;0.80;1.00
19868;DHT22;10096;51.112;6.776;2022-12-18T13:28:12;0.50;1.00
19868;DHT22;10096;51.112;6.776;2022-12-18T13:30:58;0.70;1.00
19868;DHT22;10096;51.112;6.776;2022-12-18T13:33:49;0.50;1.00
19868;DHT22;10096;51.112;6.776;2022-12-18T13:36:31;0.60;1.00
19868;DHT22;10096;51.112;6.776;2022-12-18T13:39:30;0.30;1.00
19868;DHT22;10096;51.112;6.776;2022-12-18T13:42:38;0.50;1.00
19868;DHT22;10096;51.112;6.776;2022-12-18T13:45:37;0.50;1.00
19868;DHT22;10096;51.112;6.776;2022-12-18T13:48:04;0.50;1.00
19868;DHT22;10096;51.112;6.776;2022-12-18T13:50:33;0.70;1.00
19868;DHT22;10096;51.112;6.776;2022-12-18T13:53:03;0.80;1.00
19868;DHT22;10096;51.112;6.776;2022-12-18T13:55:32;0.70;1.00
19868;DHT22;10096;51.112;6.776;2022-12-18T13:58:03;0.70;1.00
19868;DHT22;10096;51.112;6.776;2022-12-18T14:00:31;0.80;1.00
19868;DHT22;10096;51.112;6.776;2022-12-18T14:02:59;0.60;1.00
19868;DHT22;10096;51.112;6.776;2022-12-18T14:05:28;0.60;1.00
19868;DHT22;10096;51.112;6.776;2022-12-18T14:08:03;0.70;1.00
19868;DHT22;10096;51.112;6.776;2022-12-18T14:10:31;0.80;1.00
19868;DHT22;10096;51.112;6.776;2022-12-18T14:13:05;0.70;1.00
19868;DHT22;10096;51.112;6.776;2022-12-18T14:15:34;0.70;1.00
19868;DHT22;10096;51.112;6.776;2022-12-18T14:18:03;0.50;1.00
19868;DHT22;10096;51.112;6.776;2022-12-18T14:20:37;0.60;1.00
19868;DHT22;10096;51.112;6.776;2022-12-18T14:23:25;0.70;1.00
19868;DHT22;10096;51.112;6.776;2022-12-18T14:25:53;0.70;1.00
19868;DHT22;10096;51.112;6.776;2022-12-18T14:28:22;0.40;1.00
19868;DHT22;10096;51.112;6.776;2022-12-18T14:30:49;0.70;1.00
19868;DHT22;10096;51.112;6.776;2022-12-18T14:33:18;0.60;1.00
19868;DHT22;10096;51.112;6.776;2022-12-18T14:35:54;0.40;1.00
19868;DHT22;10096;51.112;6.776;2022-12-18T14:38:25;0.50;1.00
19868;DHT22;10096;51.112;6.776;2022-12-18T14:40:57;0.30;1.00
19868;DHT22;10096;51.112;6.776;2022-12-18T14:43:25;0.40;1.00
19868;DHT22;10096;51.112;6.776;2022-12-18T14:45:52;0.30;1.00
19868;DHT22;10096;51.112;6.776;2022-12-18T14:48:22;0.40;1.00
19868;DHT22;10096;51.112;6.776;2022-12-18T14:50:59;0.30;1.00
19868;DHT22;10096;51.112;6.776;2022-12-18T14:53:48;0.20;1.00
19868;DHT22;10096;51.112;6.776;2022-12-18T14:56:22;0.20;1.00
19868;DHT22;10096;51.112;6.776;2022-12-18T14:58:52;0.10;1.00
19868;DHT22;10096;51.112;6.776;2022-12-18T15:01:23;0.30;1.00
19868;DHT22;10096;51.112;6.776;2022-12-18T15:03:51;0.30;1.00
19868;DHT22;10096;51.112;6.776;2022-12-18T15:06:29;0.30;1.00
19868;DHT22;10096;51.112;6.776;2022-12-18T15:08:59;0.10;1.00
19868;DHT22;10096;51.112;6.776;2022-12-18T15:11:32;0.20;1.00
19868;DHT22;10096;51.112;6.776;2022-12-18T15:14:03;0.10;1.00
19868;DHT22;10096;51.112;6.776;2022-12-18T15:16:50;0.10;1.00
19868;DHT22;10096;51.112;6.776;2022-12-18T15:19:18;0.10;1.00
19868;DHT22;10096;51.112;6.776;2022-12-18T15:21:47;0.20;1.00
19868;DHT22;10096;51.112;6.776;2022-12-18T15:24:20;0.00;1.00
19868;DHT22;10096;51.112;6.776;2022-12-18T15:26:50;0.20;1.00
19868;DHT22;10096;51.112;6.776;2022-12-18T15:29:19;0.00;1.00
19868;DHT22;10096;51.112;6.776;2022-12-18T15:31:59;-0.10;1.00
19868;DHT22;10096;51.112;6.776;2022-12-18T15:34:27;0.00;1.00
19868;DHT22;10096;51.112;6.776;2022-12-18T15:36:54;0.10;1.00
19868;DHT22;10096;51.112;6.776;2022-12-18T15:39:23;0.10;1.00
19868;DHT22;10096;51.112;6.776;2022-12-18T15:41:50;0.10;1.00
19868;DHT22;10096;51.112;6.776;2022-12-18T15:44:34;0.00;1.00
19868;DHT22;10096;51.112;6.776;2022-12-18T15:47:02;0.00;1.00
19868;DHT22;10096;51.112;6.776;2022-12-18T15:49:29;0.10;1.00
19868;DHT22;10096;51.112;6.776;2022-12-18T15:51:58;0.00;1.00
19868;DHT22;10096;51.112;6.776;2022-12-18T15:54:27;-0.10;1.00
19868;DHT22;10096;51.112;6.776;2022-12-18T15:57:12;-0.10;1.00
19868;DHT22;10096;51.112;6.776;2022-12-18T15:59:52;-0.10;1.00
19868;DHT22;10096;51.112;6.776;2022-12-18T16:02:21;0.00;1.00
19868;DHT22;10096;51.112;6.776;2022-12-18T16:04:50;-0.10;1.00
19868;DHT22;10096;51.112;6.776;2022-12-18T16:07:17;-0.20;1.00
19868;DHT22;10096;51.112;6.776;2022-12-18T16:09:46;-0.20;1.00
19868;DHT22;10096;51.112;6.776;2022-12-18T16:12:16;-0.20;1.00
19868;DHT22;10096;51.112;6.776;2022-12-18T16:14:44;-0.20;1.00
19868;DHT22;10096;51.112;6.776;2022-12-18T16:17:12;-0.30;1.00
19868;DHT22;10096;51.112;6.776;2022-12-18T16:19:39;-0.30;1.00